Time;durP1;ratioP1;P1;durP2;ratioP2;P2;SDS_P1;SDS_P2;PMS_P1;PMS_P2;Temp;Humidity;BMP_temperature;BMP_pressure;BME280_temperature;BME280_humidity;BME280_pressure;Samples;Min_cycle;Max_cycle;Signal;HPM_P1;HPM_P2
2023/05/30 00:03:06;;;;;;;6.37;4.57;;;23.00;99.90;;;;;;6144462;23;20214;-96
2023/05/30 00:05:44;;;;;;;6.73;4.70;;;22.60;99.90;;;;;;6136346;23;20214;-96
2023/05/30 00:08:18;;;;;;;6.73;4.47;;;22.50;99.90;;;;;;6147566;23;20182;-96
2023/05/30 00:10:51;;;;;;;5.17;4.10;;;22.50;99.90;;;;;;6139849;23;20181;-96
2023/05/30 00:16:14;;;;;;;5.77;3.90;;;22.30;99.90;;;;;;6139216;23;20209;-96
2023/05/30 00:18:46;;;;;;;6.63;4.47;;;22.40;99.90;;;;;;6132741;23;20455;-95
2023/05/30 00:21:18;;;;;;;8.93;4.20;;;22.70;99.90;;;;;;6144899;23;20205;-96
2023/05/30 00:23:51;;;;;;;6.73;4.33;;;22.40;99.90;;;;;;6109286;23;20198;-93
2023/05/30 00:26:23;;;;;;;7.13;4.33;;;22.50;99.90;;;;;;6140894;23;20198;-91
2023/05/30 00:28:58;;;;;;;7.73;4.83;;;22.40;99.90;;;;;;6191738;23;20209;-95
2023/05/30 00:31:33;;;;;;;7.33;4.47;;;22.40;99.90;;;;;;6211391;23;20164;-95
2023/05/30 00:34:04;;;;;;;7.60;4.90;;;22.20;99.90;;;;;;6211630;23;20188;-95
2023/05/30 00:36:36;;;;;;;7.27;4.67;;;22.10;99.90;;;;;;6197654;23;20173;-95
2023/05/30 00:39:08;;;;;;;5.43;4.00;;;22.10;99.90;;;;;;6199731;23;20199;-94
2023/05/30 00:41:39;;;;;;;6.67;4.60;;;22.20;99.90;;;;;;6196222;23;20193;-94
2023/05/30 00:44:10;;;;;;;6.23;4.33;;;22.10;99.90;;;;;;6195698;23;20221;-94
2023/05/30 00:46:45;;;;;;;8.77;4.03;;;22.30;99.90;;;;;;6196485;23;20177;-93
2023/05/30 00:49:16;;;;;;;10.03;4.30;;;22.50;99.90;;;;;;6193406;23;20186;-94
2023/05/30 00:51:49;;;;;;;6.23;4.13;;;23.00;99.90;;;;;;6195805;23;20193;-92
2023/05/30 00:54:22;;;;;;;4.63;3.70;;;23.20;99.90;;;;;;6196897;23;20165;-94
2023/05/30 00:56:55;;;;;;;10.17;7.00;;;23.70;99.90;;;;;;6198883;23;20184;-94
2023/05/30 00:59:27;;;;;;;5.23;3.90;;;24.10;99.90;;;;;;6188227;23;20173;-94
2023/05/30 01:02:03;;;;;;;5.33;3.63;;;24.40;99.90;;;;;;6187368;23;20228;-93
2023/05/30 01:04:36;;;;;;;5.33;3.97;;;24.80;99.90;;;;;;6188182;23;20548;-94
2023/05/30 01:07:10;;;;;;;5.57;3.70;;;25.10;99.90;;;;;;6192755;23;20212;-96
2023/05/30 01:09:42;;;;;;;8.23;3.43;;;25.00;99.90;;;;;;6198370;23;20161;-94
2023/05/30 01:12:23;;;;;;;34.00;22.10;;;24.70;99.90;;;;;;6199456;23;20184;-94
2023/05/30 01:15:09;;;;;;;4.97;3.70;;;24.70;99.90;;;;;;6193171;23;20659;-93
2023/05/30 01:17:57;;;;;;;7.23;4.10;;;25.00;99.90;;;;;;6188272;23;20173;-93
2023/05/30 01:20:33;;;;;;;7.00;3.80;;;25.40;99.90;;;;;;6188177;23;20172;-94
2023/05/30 01:23:18;;;;;;;10.73;9.27;;;25.80;99.90;;;;;;6189792;23;20207;-94
2023/05/30 01:26:17;;;;;;;15.00;11.93;;;26.00;99.90;;;;;;6190508;23;20191;-93
2023/05/30 01:28:54;;;;;;;18.10;12.60;;;25.10;99.90;;;;;;6186695;23;20185;-95
2023/05/30 01:31:26;;;;;;;16.00;13.80;;;24.50;99.90;;;;;;6189813;23;20200;-94
2023/05/30 01:34:00;;;;;;;6.17;3.93;;;24.70;99.90;;;;;;6192760;23;20512;-95
2023/05/30 01:36:32;;;;;;;5.97;3.20;;;24.90;99.90;;;;;;6194221;23;20252;-94
2023/05/30 01:39:07;;;;;;;7.47;4.90;;;24.80;99.90;;;;;;6187715;23;20200;-94
2023/05/30 01:41:48;;;;;;;8.00;3.60;;;25.20;99.90;;;;;;6189399;23;20555;-96
2023/05/30 01:44:29;;;;;;;8.53;3.20;;;25.50;99.90;;;;;;6198645;23;20180;-94
2023/05/30 01:47:14;;;;;;;4.53;2.70;;;24.80;99.90;;;;;;6190138;23;20169;-96
2023/05/30 01:49:53;;;;;;;5.63;2.97;;;24.90;99.90;;;;;;6186560;23;20665;-94
2023/05/30 01:52:30;;;;;;;6.60;3.20;;;25.10;99.90;;;;;;6190542;23;20296;-93
2023/05/30 01:55:06;;;;;;;5.97;2.93;;;24.90;99.90;;;;;;6189455;23;20177;-95
2023/05/30 01:57:47;;;;;;;5.57;2.80;;;24.10;99.90;;;;;;6186556;23;20200;-95
2023/05/30 02:00:23;;;;;;;4.50;2.80;;;24.00;99.90;;;;;;6189165;23;20169;-94
2023/05/30 02:02:54;;;;;;;6.20;3.80;;;23.80;99.90;;;;;;6189314;23;20224;-93
2023/05/30 02:05:26;;;;;;;8.63;6.70;;;23.50;99.90;;;;;;6191243;23;20177;-92
2023/05/30 02:07:59;;;;;;;10.90;9.80;;;22.90;99.90;;;;;;6190140;23;20233;-92
2023/05/30 02:10:31;;;;;;;7.27;4.43;;;22.20;99.90;;;;;;6189251;23;20268;-94
2023/05/30 02:13:03;;;;;;;5.40;3.30;;;21.80;99.90;;;;;;6189151;23;20563;-93
2023/05/30 02:15:37;;;;;;;12.03;9.80;;;21.80;99.90;;;;;;6190391;23;20233;-93
2023/05/30 02:18:09;;;;;;;7.20;3.70;;;21.60;99.90;;;;;;6186834;23;20241;-93
2023/05/30 02:20:41;;;;;;;4.00;2.80;;;21.50;99.90;;;;;;6190186;23;20183;-93
2023/05/30 02:23:14;;;;;;;4.83;2.53;;;21.60;99.90;;;;;;6189381;23;20211;-95
2023/05/30 02:25:46;;;;;;;5.60;2.70;;;21.50;99.90;;;;;;6190817;23;20177;-94
2023/05/30 02:28:17;;;;;;;6.77;3.00;;;21.40;99.90;;;;;;6189562;23;20185;-94
2023/05/30 02:30:50;;;;;;;5.53;2.53;;;21.20;99.90;;;;;;6189078;23;20281;-94
2023/05/30 02:33:22;;;;;;;4.80;2.53;;;21.00;99.90;;;;;;6189330;23;20256;-93
2023/05/30 02:35:53;;;;;;;5.77;2.60;;;20.70;99.90;;;;;;6191736;23;20173;-95
2023/05/30 02:38:25;;;;;;;7.77;2.60;;;20.50;99.90;;;;;;6211378;23;20184;-93
2023/05/30 02:40:56;;;;;;;4.40;2.23;;;20.40;99.90;;;;;;6212971;23;20177;-94
2023/05/30 02:43:28;;;;;;;4.70;2.60;;;20.20;99.90;;;;;;6202409;23;20208;-95
2023/05/30 02:46:04;;;;;;;7.83;3.30;;;20.20;99.90;;;;;;6191219;23;20192;-94
2023/05/30 02:48:35;;;;;;;5.93;3.00;;;20.10;99.90;;;;;;6191615;23;20177;-94
2023/05/30 02:51:07;;;;;;;5.70;2.60;;;20.00;99.90;;;;;;6195928;23;20177;-94
2023/05/30 02:53:39;;;;;;;5.17;2.53;;;19.80;99.90;;;;;;6196000;23;20180;-92
2023/05/30 02:56:10;;;;;;;4.47;2.87;;;19.70;99.90;;;;;;6192093;23;20165;-93
2023/05/30 02:58:42;;;;;;;8.47;2.67;;;19.50;99.90;;;;;;6188445;23;20173;-94
2023/05/30 03:01:16;;;;;;;7.17;2.73;;;19.40;99.90;;;;;;6188877;23;20558;-93
2023/05/30 03:03:50;;;;;;;4.93;2.83;;;19.30;99.90;;;;;;6188091;23;20247;-93
2023/05/30 03:06:21;;;;;;;3.87;2.87;;;19.20;99.90;;;;;;6188500;23;20188;-93
2023/05/30 03:08:59;;;;;;;8.10;3.50;;;19.20;99.90;;;;;;6187319;23;20173;-96
2023/05/30 03:11:30;;;;;;;4.83;2.87;;;19.10;99.90;;;;;;6189452;23;20175;-93
2023/05/30 03:14:02;;;;;;;7.80;3.13;;;19.10;99.90;;;;;;6190150;23;20193;-93
2023/05/30 03:16:36;;;;;;;5.13;3.47;;;19.00;99.90;;;;;;6188881;23;20220;-93
2023/05/30 03:19:08;;;;;;;6.33;2.97;;;19.00;99.90;;;;;;6186122;23;20177;-93
2023/05/30 03:21:42;;;;;;;7.50;2.93;;;18.90;99.90;;;;;;6187469;23;20618;-92
2023/05/30 03:24:13;;;;;;;5.00;2.87;;;18.80;99.90;;;;;;6188908;23;20212;-94
2023/05/30 03:26:45;;;;;;;5.13;3.30;;;18.70;99.90;;;;;;6188939;23;20259;-94
2023/05/30 03:29:16;;;;;;;6.63;3.30;;;18.70;99.90;;;;;;6186262;23;20628;-95
2023/05/30 03:31:50;;;;;;;4.57;3.23;;;18.60;99.90;;;;;;6189266;23;20628;-95
2023/05/30 03:34:22;;;;;;;7.07;2.93;;;18.60;99.90;;;;;;6189196;23;20633;-95
2023/05/30 03:36:54;;;;;;;6.77;3.30;;;18.50;99.90;;;;;;6188636;23;20275;-94
2023/05/30 03:39:26;;;;;;;7.53;3.53;;;18.50;99.90;;;;;;6188113;23;20173;-94
2023/05/30 03:41:58;;;;;;;6.10;2.83;;;18.50;99.90;;;;;;6190070;23;20204;-95
2023/05/30 03:44:29;;;;;;;5.17;3.20;;;18.50;99.90;;;;;;6189619;23;20196;-92
2023/05/30 03:47:04;;;;;;;6.23;3.57;;;18.50;99.90;;;;;;6189637;23;20189;-94
2023/05/30 03:49:36;;;;;;;7.80;3.60;;;18.50;99.90;;;;;;6187228;23;20203;-93
2023/05/30 03:52:08;;;;;;;7.70;3.83;;;18.60;99.90;;;;;;6192667;23;20213;-94
2023/05/30 03:54:41;;;;;;;4.37;3.00;;;18.50;99.90;;;;;;6191688;23;20232;-95
2023/05/30 03:57:13;;;;;;;5.20;3.37;;;18.40;99.90;;;;;;6194832;23;20490;-93
2023/05/30 03:59:48;;;;;;;5.43;3.40;;;18.40;99.90;;;;;;6206964;23;20165;-94
2023/05/30 04:02:21;;;;;;;10.27;3.83;;;18.40;99.90;;;;;;6209638;23;20204;-94
2023/05/30 04:04:53;;;;;;;5.87;3.70;;;18.40;99.90;;;;;;6207890;23;20212;-94
2023/05/30 04:07:27;;;;;;;7.63;3.70;;;18.50;99.90;;;;;;6196685;23;20189;-93
2023/05/30 04:09:58;;;;;;;5.63;3.50;;;18.50;99.90;;;;;;6193242;23;20181;-93
2023/05/30 04:12:30;;;;;;;6.27;3.80;;;18.40;99.90;;;;;;6193496;23;20177;-95
2023/05/30 04:15:04;;;;;;;6.67;3.83;;;18.30;99.90;;;;;;6193302;23;20177;-95
2023/05/30 04:17:40;;;;;;;8.33;3.50;;;18.30;99.90;;;;;;6192432;23;20223;-96
2023/05/30 04:20:14;;;;;;;5.43;3.70;;;18.20;99.90;;;;;;6189141;23;20196;-93
2023/05/30 04:22:48;;;;;;;6.80;3.70;;;18.10;99.90;;;;;;6188191;23;20172;-95
2023/05/30 04:25:22;;;;;;;4.57;3.20;;;18.10;99.90;;;;;;6190027;23;20204;-95
2023/05/30 04:27:54;;;;;;;4.20;3.27;;;18.10;99.90;;;;;;6187628;23;20320;-95
2023/05/30 04:30:26;;;;;;;5.37;2.97;;;17.90;99.90;;;;;;6188260;23;20209;-94
2023/05/30 04:33:00;;;;;;;6.47;3.20;;;17.80;99.90;;;;;;6188878;23;20624;-91
2023/05/30 04:35:34;;;;;;;5.03;2.87;;;17.70;99.90;;;;;;6188576;23;20177;-94
2023/05/30 04:38:06;;;;;;;5.47;3.10;;;17.60;99.90;;;;;;6187758;23;20173;-94
2023/05/30 04:40:38;;;;;;;5.07;3.00;;;17.50;99.90;;;;;;6188369;23;20272;-93
2023/05/30 04:43:09;;;;;;;7.00;3.10;;;17.50;99.90;;;;;;6189820;23;20177;-94
2023/05/30 04:45:43;;;;;;;5.07;3.27;;;17.30;99.90;;;;;;6197256;23;20192;-93
2023/05/30 04:48:18;;;;;;;6.60;2.80;;;17.30;99.90;;;;;;6211392;23;20185;-92
2023/05/30 04:50:50;;;;;;;5.83;2.80;;;17.20;99.90;;;;;;6210595;23;20172;-94
2023/05/30 04:53:22;;;;;;;7.23;3.33;;;17.20;99.90;;;;;;6193203;23;20652;-93
2023/05/30 04:55:53;;;;;;;6.20;3.17;;;17.10;99.90;;;;;;6189854;23;20180;-92
2023/05/30 04:58:26;;;;;;;7.33;3.13;;;17.10;99.90;;;;;;6186638;23;20255;-93
2023/05/30 05:00:58;;;;;;;5.73;2.77;;;17.00;99.90;;;;;;6187371;23;20209;-94
2023/05/30 05:03:34;;;;;;;6.03;2.83;;;17.00;99.90;;;;;;6190093;23;20173;-92
2023/05/30 05:06:06;;;;;;;8.00;2.97;;;16.90;99.90;;;;;;6187875;23;20200;-92
2023/05/30 05:08:37;;;;;;;7.30;3.27;;;17.00;99.90;;;;;;6186883;23;20624;-93
2023/05/30 05:11:10;;;;;;;10.17;3.20;;;16.90;99.90;;;;;;6188544;23;20172;-93
2023/05/30 05:13:43;;;;;;;4.43;2.50;;;16.90;99.90;;;;;;6186546;23;20267;-93
2023/05/30 05:16:15;;;;;;;6.13;2.87;;;16.90;99.90;;;;;;6187792;23;20265;-94
2023/05/30 05:18:48;;;;;;;8.47;3.17;;;16.70;99.90;;;;;;6186285;23;20175;-94
2023/05/30 05:21:20;;;;;;;11.07;3.10;;;16.70;99.90;;;;;;6186632;23;20173;-92
2023/05/30 05:23:52;;;;;;;8.53;3.13;;;16.70;99.90;;;;;;6188097;23;20197;-93
2023/05/30 05:26:24;;;;;;;6.10;2.77;;;16.80;99.90;;;;;;6188201;23;20196;-92
2023/05/30 05:28:56;;;;;;;9.07;3.30;;;16.70;99.90;;;;;;6186840;23;20228;-92
2023/05/30 05:31:29;;;;;;;11.67;3.03;;;16.70;99.90;;;;;;6187187;23;20256;-92
2023/05/30 05:36:53;;;;;;;9.53;2.87;;;16.50;99.90;;;;;;6186680;23;20564;-94
2023/05/30 05:39:24;;;;;;;5.80;2.97;;;16.60;99.90;;;;;;6186225;23;20179;-95
2023/05/30 05:41:56;;;;;;;8.27;2.63;;;16.40;99.90;;;;;;6187861;23;20177;-94
2023/05/30 05:44:28;;;;;;;7.10;2.90;;;16.30;99.90;;;;;;6188908;23;20219;-94
2023/05/30 05:47:01;;;;;;;5.60;2.93;;;16.20;99.90;;;;;;6190177;23;20169;-93
2023/05/30 05:49:35;;;;;;;8.97;2.93;;;16.10;99.90;;;;;;6187428;23;20256;-93
2023/05/30 05:52:08;;;;;;;9.90;3.30;;;16.10;99.90;;;;;;6187709;23;20177;-92
2023/05/30 05:54:39;;;;;;;8.80;2.63;;;16.00;99.90;;;;;;6189716;23;20259;-93
2023/05/30 05:57:11;;;;;;;10.10;2.93;;;16.00;99.90;;;;;;6191065;23;20185;-94
2023/05/30 05:59:43;;;;;;;7.50;2.90;;;16.00;99.90;;;;;;6189898;23;20181;-94
2023/05/30 06:02:15;;;;;;;10.63;2.80;;;15.90;99.90;;;;;;6191106;23;20632;-94
2023/05/30 06:04:49;;;;;;;10.23;3.40;;;15.80;99.90;;;;;;6191555;23;20200;-94
2023/05/30 06:07:21;;;;;;;10.73;3.03;;;15.70;99.90;;;;;;6191511;23;20176;-94
2023/05/30 06:09:53;;;;;;;14.10;3.40;;;15.60;99.90;;;;;;6194728;23;20251;-93
2023/05/30 06:12:24;;;;;;;8.23;3.03;;;15.70;99.90;;;;;;6190597;23;20177;-93
2023/05/30 06:14:56;;;;;;;13.70;3.37;;;15.60;99.90;;;;;;6190419;23;20691;-92
2023/05/30 06:17:30;;;;;;;8.90;3.00;;;15.50;99.90;;;;;;6164848;23;20175;-94
2023/05/30 06:20:05;;;;;;;6.87;3.13;;;15.40;99.90;;;;;;6188966;23;20212;-93
2023/05/30 06:22:37;;;;;;;13.07;3.77;;;15.30;99.90;;;;;;6188364;23;20180;-94
2023/05/30 06:25:10;;;;;;;12.90;3.57;;;15.20;99.90;;;;;;6189414;23;20212;-94
2023/05/30 06:27:42;;;;;;;10.90;3.40;;;15.20;99.90;;;;;;6187711;23;20283;-94
2023/05/30 06:30:14;;;;;;;12.40;3.50;;;15.10;99.90;;;;;;6191066;23;20211;-93
2023/05/30 06:32:46;;;;;;;8.13;3.17;;;15.10;99.90;;;;;;6190291;23;20197;-94
2023/05/30 06:35:20;;;;;;;10.67;3.13;;;14.90;99.90;;;;;;6191076;23;20169;-95
2023/05/30 06:37:52;;;;;;;12.90;3.80;;;14.80;99.90;;;;;;6189119;23;20169;-93
2023/05/30 06:40:24;;;;;;;13.00;3.60;;;14.90;99.90;;;;;;6189254;23;20616;-95
2023/05/30 06:42:56;;;;;;;11.93;3.40;;;14.80;99.90;;;;;;6191477;23;20169;-95
2023/05/30 06:45:29;;;;;;;16.87;4.87;;;14.80;99.90;;;;;;6190973;23;20196;-94
2023/05/30 06:48:01;;;;;;;13.47;3.73;;;14.70;99.90;;;;;;6191463;23;20522;-94
2023/05/30 06:50:38;;;;;;;9.70;3.90;;;14.60;99.90;;;;;;6191687;23;20173;-94
2023/05/30 06:53:13;;;;;;;12.20;3.70;;;14.60;99.90;;;;;;6192127;23;20169;-94
2023/05/30 06:55:45;;;;;;;12.43;3.70;;;14.60;99.90;;;;;;6206843;23;20240;-94
2023/05/30 06:58:17;;;;;;;13.37;4.03;;;14.70;99.90;;;;;;6211278;23;20181;-94
2023/05/30 07:00:49;;;;;;;12.27;3.83;;;14.60;99.90;;;;;;6206756;23;20181;-93
2023/05/30 07:03:21;;;;;;;18.87;3.60;;;14.60;99.90;;;;;;6194650;23;20177;-94
2023/05/30 07:05:55;;;;;;;13.50;3.40;;;14.50;99.90;;;;;;6189349;23;20205;-94
2023/05/30 07:08:27;;;;;;;13.03;3.93;;;14.50;99.90;;;;;;6188436;23;20193;-94
2023/05/30 07:10:58;;;;;;;13.53;3.27;;;14.50;99.90;;;;;;6190236;23;20265;-93
2023/05/30 07:13:30;;;;;;;14.63;4.00;;;14.30;99.90;;;;;;6191001;23;20334;-93
2023/05/30 07:16:01;;;;;;;16.90;4.80;;;14.30;99.90;;;;;;6190480;23;20200;-94
2023/05/30 07:18:33;;;;;;;16.83;4.00;;;14.30;99.90;;;;;;6188840;23;20181;-93
2023/05/30 07:21:08;;;;;;;14.97;3.70;;;14.30;99.90;;;;;;6190804;23;20181;-93
2023/05/30 07:23:40;;;;;;;14.17;3.40;;;14.30;99.90;;;;;;6190388;23;20172;-94
2023/05/30 07:26:13;;;;;;;10.20;3.37;;;14.40;99.90;;;;;;6189466;23;20201;-92
2023/05/30 07:28:44;;;;;;;9.97;3.40;;;14.30;99.90;;;;;;6192095;23;20211;-93
2023/05/30 07:31:16;;;;;;;16.67;3.67;;;14.40;99.90;;;;;;6189819;23;20192;-94
2023/05/30 07:33:47;;;;;;;13.03;3.60;;;14.30;99.90;;;;;;6190639;23;20176;-94
2023/05/30 07:36:21;;;;;;;16.67;4.47;;;14.30;99.90;;;;;;6190333;23;20185;-94
2023/05/30 07:38:53;;;;;;;13.33;3.33;;;14.30;99.90;;;;;;6190736;23;20165;-93
2023/05/30 07:41:26;;;;;;;14.90;4.27;;;14.30;99.90;;;;;;6193872;23;20170;-95
2023/05/30 07:43:58;;;;;;;13.87;3.83;;;14.20;99.90;;;;;;6196286;23;20256;-93
2023/05/30 07:46:30;;;;;;;11.50;4.13;;;14.20;99.90;;;;;;6192695;23;20193;-94
2023/05/30 07:49:03;;;;;;;10.80;3.43;;;14.20;99.90;;;;;;6189636;23;20166;-94
2023/05/30 07:51:37;;;;;;;15.67;4.13;;;14.20;99.90;;;;;;6187751;23;20177;-95
2023/05/30 07:54:09;;;;;;;14.57;4.17;;;14.20;99.90;;;;;;6190320;23;20175;-95
2023/05/30 07:56:42;;;;;;;12.43;3.87;;;14.20;99.90;;;;;;6190313;23;20169;-93
2023/05/30 07:59:13;;;;;;;15.30;3.87;;;14.20;99.90;;;;;;6187844;23;20173;-94
2023/05/30 08:01:46;;;;;;;14.70;3.70;;;14.20;99.90;;;;;;6189391;23;20207;-94
2023/05/30 08:04:18;;;;;;;11.53;3.30;;;14.20;99.90;;;;;;6189572;23;20247;-94
2023/05/30 08:06:54;;;;;;;10.57;3.60;;;14.10;99.90;;;;;;6189434;23;20236;-94
2023/05/30 08:09:26;;;;;;;12.23;3.80;;;14.10;99.90;;;;;;6188844;23;20196;-94
2023/05/30 08:12:01;;;;;;;15.37;4.13;;;14.10;99.90;;;;;;6191345;23;20193;-94
2023/05/30 08:14:34;;;;;;;13.30;4.00;;;14.10;99.90;;;;;;6190435;23;20227;-94
2023/05/30 08:17:11;;;;;;;17.50;3.93;;;14.10;99.90;;;;;;6194551;23;20173;-94
2023/05/30 08:19:43;;;;;;;13.10;3.53;;;14.10;99.90;;;;;;6198219;23;20245;-95
2023/05/30 08:22:21;;;;;;;19.23;4.30;;;14.10;99.90;;;;;;6195314;23;20176;-94
2023/05/30 08:24:59;;;;;;;13.73;3.57;;;14.10;99.90;;;;;;6195284;23;20228;-94
2023/05/30 08:27:41;;;;;;;15.10;4.00;;;14.10;99.90;;;;;;6196351;23;20619;-93
2023/05/30 08:30:14;;;;;;;15.57;4.17;;;13.90;99.90;;;;;;6197941;23;20208;-93
2023/05/30 08:32:46;;;;;;;16.10;4.40;;;13.90;99.90;;;;;;6197847;23;20177;-92
2023/05/30 08:35:19;;;;;;;18.37;4.40;;;14.00;99.90;;;;;;6190018;23;20639;-94
2023/05/30 08:37:54;;;;;;;16.67;3.43;;;13.90;99.90;;;;;;6189811;23;20187;-94
2023/05/30 08:40:29;;;;;;;13.23;3.83;;;13.90;99.90;;;;;;6188587;23;20165;-93
2023/05/30 08:43:02;;;;;;;13.83;3.70;;;13.80;99.90;;;;;;6188939;23;20780;-94
2023/05/30 08:45:35;;;;;;;15.47;4.07;;;13.70;99.90;;;;;;6189766;23;20189;-92
2023/05/30 08:48:08;;;;;;;17.87;4.07;;;13.70;99.90;;;;;;6189189;23;20240;-94
2023/05/30 08:50:40;;;;;;;15.10;3.80;;;13.60;99.90;;;;;;6188973;23;20174;-95
2023/05/30 08:53:15;;;;;;;15.07;4.07;;;13.50;99.90;;;;;;6189105;23;20165;-95
2023/05/30 08:55:57;;;;;;;17.27;3.90;;;13.50;99.90;;;;;;6190638;23;20229;-95
2023/05/30 08:58:33;;;;;;;15.83;4.13;;;13.50;99.90;;;;;;6188413;23;20173;-94
2023/05/30 09:01:09;;;;;;;21.30;4.27;;;13.60;99.90;;;;;;6188673;23;20240;-94
2023/05/30 09:03:44;;;;;;;16.23;4.10;;;13.60;99.90;;;;;;6212488;23;20156;-96
2023/05/30 09:06:16;;;;;;;16.13;4.00;;;13.60;99.90;;;;;;6210664;23;20196;-94
2023/05/30 09:08:53;;;;;;;16.57;3.27;;;13.40;99.90;;;;;;6200408;23;20189;-93
2023/05/30 09:11:25;;;;;;;13.00;3.97;;;13.20;99.90;;;;;;6191208;23;20187;-94
2023/05/30 09:13:58;;;;;;;14.60;3.80;;;13.20;99.90;;;;;;6189402;23;20184;-93
2023/05/30 09:16:30;;;;;;;16.50;3.90;;;13.10;99.90;;;;;;6189016;23;20177;-94
2023/05/30 09:19:03;;;;;;;17.37;3.60;;;13.10;99.90;;;;;;6189578;23;20181;-95
2023/05/30 09:21:35;;;;;;;14.60;3.37;;;13.10;99.90;;;;;;6190958;23;20628;-95
2023/05/30 09:24:10;;;;;;;12.77;3.73;;;12.90;99.90;;;;;;6188710;23;20620;-94
2023/05/30 09:27:01;;;;;;;16.27;3.80;;;12.90;99.90;;;;;;6191328;23;20212;-96
2023/05/30 09:29:44;;;;;;;12.10;3.10;;;13.00;99.90;;;;;;6193704;23;20173;-93
2023/05/30 09:32:15;;;;;;;15.13;3.50;;;13.10;99.90;;;;;;6207017;23;20205;-94
2023/05/30 09:34:56;;;;;;;10.93;3.47;;;13.10;99.90;;;;;;6204389;23;20176;-96
2023/05/30 09:37:36;;;;;;;9.03;2.70;;;13.10;99.90;;;;;;6210941;23;20168;-94
2023/05/30 09:40:16;;;;;;;10.77;2.97;;;13.10;99.90;;;;;;6211279;23;20173;-95
2023/05/30 09:42:49;;;;;;;8.80;2.90;;;13.20;99.90;;;;;;6210794;23;20183;-94
2023/05/30 09:45:23;;;;;;;13.10;3.13;;;12.80;99.90;;;;;;6203309;23;20183;-95
2023/05/30 09:47:55;;;;;;;8.40;2.73;;;12.60;99.90;;;;;;6197146;23;20686;-95
2023/05/30 09:50:28;;;;;;;10.77;3.13;;;12.30;99.90;;;;;;6193477;23;20203;-94
2023/05/30 09:53:01;;;;;;;10.10;2.57;;;12.30;99.90;;;;;;6191155;23;20673;-95
2023/05/30 09:55:35;;;;;;;7.07;2.63;;;12.30;99.90;;;;;;6190110;23;20211;-93
2023/05/30 09:58:07;;;;;;;11.10;2.60;;;12.20;99.90;;;;;;6187291;23;20207;-93
2023/05/30 10:00:38;;;;;;;9.93;3.00;;;12.30;99.90;;;;;;6188039;23;20169;-92
2023/05/30 10:03:13;;;;;;;11.03;2.60;;;12.40;99.90;;;;;;6193197;23;20211;-95
2023/05/30 10:05:44;;;;;;;8.90;2.73;;;12.40;99.90;;;;;;6194416;23;20181;-95
2023/05/30 10:08:17;;;;;;;9.87;2.93;;;12.40;99.90;;;;;;6191897;23;20181;-94
2023/05/30 10:10:53;;;;;;;8.07;2.47;;;12.30;99.90;;;;;;6189375;23;20193;-95
2023/05/30 10:13:25;;;;;;;12.10;3.37;;;12.40;99.90;;;;;;6189219;23;20177;-94
2023/05/30 10:15:56;;;;;;;7.83;2.57;;;12.30;99.90;;;;;;6189448;23;20224;-92
2023/05/30 10:18:29;;;;;;;10.17;2.87;;;12.40;99.90;;;;;;6188640;23;20205;-93
2023/05/30 10:21:01;;;;;;;7.17;2.30;;;12.30;99.90;;;;;;6189309;23;20566;-95
2023/05/30 10:23:33;;;;;;;11.27;3.27;;;12.20;99.90;;;;;;6189589;23;20174;-96
2023/05/30 10:26:10;;;;;;;8.93;2.80;;;12.10;99.90;;;;;;6189223;23;20179;-95
2023/05/30 10:28:56;;;;;;;9.63;3.00;;;12.10;99.90;;;;;;6189411;23;20180;-96
2023/05/30 10:31:30;;;;;;;10.13;2.90;;;12.00;99.90;;;;;;6189445;23;20173;-96
2023/05/30 10:34:04;;;;;;;12.00;3.07;;;12.10;99.90;;;;;;6189015;23;20260;-94
2023/05/30 10:36:41;;;;;;;9.87;2.77;;;12.10;99.90;;;;;;6188903;23;20165;-95
2023/05/30 10:39:27;;;;;;;10.17;3.03;;;12.20;99.90;;;;;;6188670;23;20168;-94
2023/05/30 10:42:05;;;;;;;8.90;2.80;;;12.30;99.90;;;;;;6191954;23;20169;-94
2023/05/30 10:44:54;;;;;;;10.73;2.80;;;12.30;99.90;;;;;;6191711;23;20177;-95
2023/05/30 10:47:39;;;;;;;9.87;2.67;;;12.30;99.90;;;;;;6190816;23;20331;-95
2023/05/30 10:50:19;;;;;;;6.67;2.57;;;12.30;99.90;;;;;;6191357;23;20166;-94
2023/05/30 10:52:51;;;;;;;11.73;3.13;;;12.20;99.90;;;;;;6190538;23;20243;-93
2023/05/30 10:55:25;;;;;;;10.53;2.83;;;12.20;99.90;;;;;;6190516;23;20169;-94
2023/05/30 10:57:58;;;;;;;8.07;2.70;;;12.20;99.90;;;;;;6188573;23;20231;-94
2023/05/30 11:00:32;;;;;;;10.10;2.83;;;12.00;99.90;;;;;;6189603;23;20636;-94
2023/05/30 11:03:04;;;;;;;8.43;2.60;;;12.00;99.90;;;;;;6190591;23;20177;-94
2023/05/30 11:05:36;;;;;;;10.57;2.73;;;12.10;99.90;;;;;;6190532;23;20173;-94
2023/05/30 11:08:08;;;;;;;12.63;2.80;;;12.00;99.90;;;;;;6193306;23;20219;-93
2023/05/30 11:10:40;;;;;;;9.73;2.80;;;12.00;99.90;;;;;;6213251;23;20165;-94
2023/05/30 11:13:16;;;;;;;10.63;2.80;;;12.00;99.90;;;;;;6212563;23;20272;-93
2023/05/30 11:15:48;;;;;;;10.87;2.97;;;12.10;99.90;;;;;;6195900;23;20171;-93
2023/05/30 11:18:21;;;;;;;10.50;2.93;;;12.00;99.90;;;;;;6189713;23;20186;-94
2023/05/30 11:20:56;;;;;;;8.70;2.63;;;11.90;99.90;;;;;;6190892;23;20185;-94
2023/05/30 11:23:29;;;;;;;8.23;2.43;;;11.90;99.90;;;;;;6190422;23;20169;-95
2023/05/30 11:26:01;;;;;;;11.20;3.07;;;11.90;99.90;;;;;;6189905;23;20196;-95
2023/05/30 11:28:38;;;;;;;10.57;2.80;;;12.00;99.90;;;;;;6189397;23;20263;-96
2023/05/30 11:31:19;;;;;;;9.30;2.90;;;12.00;99.90;;;;;;6188912;23;20608;-94
2023/05/30 11:33:52;;;;;;;12.07;3.50;;;11.90;99.90;;;;;;6191100;23;20173;-96
2023/05/30 11:36:24;;;;;;;8.37;2.90;;;11.80;99.90;;;;;;6191166;23;20185;-94
2023/05/30 11:38:56;;;;;;;8.23;2.80;;;11.70;99.90;;;;;;6191213;23;20181;-96
2023/05/30 11:41:28;;;;;;;10.10;2.97;;;11.50;99.90;;;;;;6189272;23;20260;-94
2023/05/30 11:44:05;;;;;;;10.87;3.00;;;11.30;99.90;;;;;;6190408;23;20204;-94
2023/05/30 11:46:36;;;;;;;9.47;2.57;;;11.30;99.90;;;;;;6189325;23;20564;-95
2023/05/30 11:49:08;;;;;;;11.60;3.60;;;11.30;99.90;;;;;;6189559;23;20181;-95
2023/05/30 11:51:41;;;;;;;11.73;2.83;;;11.30;99.90;;;;;;6190621;23;20231;-95
2023/05/30 11:54:14;;;;;;;11.90;3.27;;;11.30;99.90;;;;;;6191132;23;20231;-95
2023/05/30 11:56:47;;;;;;;10.60;2.87;;;11.00;99.90;;;;;;6193232;23;20177;-95
2023/05/30 11:59:23;;;;;;;12.40;2.87;;;10.90;99.90;;;;;;6188730;23;20224;-96
2023/05/30 12:01:59;;;;;;;12.53;2.80;;;10.80;99.90;;;;;;6189453;23;20172;-95
2023/05/30 12:04:34;;;;;;;11.57;3.00;;;10.60;99.90;;;;;;6192179;23;20181;-95
2023/05/30 12:07:10;;;;;;;8.03;2.37;;;10.60;99.90;;;;;;6190124;23;20216;-96
2023/05/30 12:09:42;;;;;;;10.03;2.80;;;10.60;99.90;;;;;;6188977;23;20596;-95
2023/05/30 12:12:13;;;;;;;7.57;2.70;;;10.60;99.90;;;;;;6188184;23;20438;-96
2023/05/30 12:15:04;;;;;;;10.90;3.00;;;10.70;99.90;;;;;;6189545;23;20495;-96
2023/05/30 12:17:40;;;;;;;15.97;3.20;;;10.70;99.90;;;;;;6190470;23;20165;-96
2023/05/30 12:20:16;;;;;;;9.07;2.63;;;10.60;99.90;;;;;;6189809;23;20169;-96
2023/05/30 12:22:49;;;;;;;15.47;3.00;;;10.60;99.90;;;;;;6190411;23;20272;-95
2023/05/30 12:25:28;;;;;;;8.00;2.33;;;10.50;99.90;;;;;;6190173;23;20211;-95
2023/05/30 12:28:01;;;;;;;9.63;2.73;;;10.50;99.90;;;;;;6188371;23;20218;-94
2023/05/30 12:30:40;;;;;;;8.43;2.53;;;10.50;99.90;;;;;;6189839;23;20187;-94
2023/05/30 12:33:17;;;;;;;10.67;2.60;;;10.50;99.90;;;;;;6193842;23;20265;-93
2023/05/30 12:35:55;;;;;;;9.10;2.57;;;10.50;99.90;;;;;;6190978;23;20203;-95
2023/05/30 12:38:27;;;;;;;14.60;2.90;;;10.30;99.90;;;;;;6189839;23;20201;-95
2023/05/30 12:41:01;;;;;;;10.90;3.00;;;10.40;99.90;;;;;;6189790;23;20235;-94
2023/05/30 12:43:35;;;;;;;8.00;2.40;;;10.30;99.90;;;;;;6199279;23;20662;-96
2023/05/30 12:46:17;;;;;;;11.33;3.00;;;10.10;99.90;;;;;;6200241;23;20176;-94
2023/05/30 12:48:50;;;;;;;13.03;3.33;;;10.10;99.90;;;;;;6197279;23;20193;-95
2023/05/30 12:51:24;;;;;;;9.77;2.70;;;10.10;99.90;;;;;;6189426;23;20183;-95
2023/05/30 12:56:44;;;;;;;11.53;2.97;;;10.10;99.90;;;;;;6191775;23;20177;-96
2023/05/30 12:59:17;;;;;;;10.13;2.70;;;10.20;99.90;;;;;;6189944;23;20173;-96
2023/05/30 13:01:52;;;;;;;10.07;2.80;;;10.30;99.90;;;;;;6190767;23;20503;-93
2023/05/30 13:04:25;;;;;;;9.73;2.80;;;10.40;99.90;;;;;;6188768;23;20185;-95
2023/05/30 13:06:57;;;;;;;6.90;2.60;;;10.40;99.90;;;;;;6188687;23;20212;-93
2023/05/30 13:09:29;;;;;;;10.83;2.93;;;10.40;99.90;;;;;;6187145;23;20529;-93
2023/05/30 13:12:03;;;;;;;9.43;2.33;;;10.40;99.90;;;;;;6189687;23;20169;-93
2023/05/30 13:14:35;;;;;;;7.90;3.00;;;10.40;99.90;;;;;;6194450;23;20189;-95
2023/05/30 13:17:09;;;;;;;8.97;2.57;;;10.10;99.90;;;;;;6196947;23;20688;-95
2023/05/30 13:19:42;;;;;;;10.60;3.10;;;10.20;99.90;;;;;;6190151;23;20165;-95
2023/05/30 13:22:14;;;;;;;12.43;2.60;;;10.10;99.90;;;;;;6190046;23;20572;-95
2023/05/30 13:24:47;;;;;;;8.13;2.73;;;9.90;99.90;;;;;;6188837;23;20177;-92
2023/05/30 13:27:18;;;;;;;12.60;2.83;;;10.00;99.90;;;;;;6187355;23;20638;-94